createdAt,value
2018-06-19T04:49:52.882Z,12.17
2018-06-19T04:51:56.347Z,8.90
2018-06-19T04:54:00.030Z,9.23
2018-06-19T04:56:03.559Z,9.40
2018-06-19T04:58:07.190Z,7.93
2018-06-19T05:00:10.768Z,12.90
2018-06-19T05:02:14.296Z,8.53
2018-06-19T05:04:17.830Z,12.73
2018-06-19T05:06:22.206Z,9.03
2018-06-19T05:08:26.792Z,11.23
2018-06-19T05:10:30.425Z,9.83
2018-06-19T05:12:34.316Z,10.60
2018-06-19T05:14:37.980Z,12.60
2018-06-19T05:16:42.493Z,11.23
2018-06-19T05:18:46.047Z,10.87
2018-06-19T05:20:49.587Z,13.23
2018-06-19T05:22:53.234Z,13.67
2018-06-19T05:24:57.266Z,11.07
2018-06-19T05:27:01.743Z,13.43
2018-06-19T05:29:05.788Z,12.47
2018-06-19T05:31:09.475Z,10.63
2018-06-19T05:33:13.052Z,9.63
2018-06-19T05:35:16.811Z,11.47
2018-06-19T05:37:20.578Z,15.37
2018-06-19T05:39:24.292Z,12.80
2018-06-19T05:41:27.808Z,10.57
2018-06-19T05:43:31.342Z,9.27
2018-06-19T05:45:35.026Z,16.43
2018-06-19T05:47:38.888Z,8.10
2018-06-19T05:49:42.618Z,7.40
2018-06-19T05:51:48.929Z,8.10
2018-06-19T05:53:52.550Z,7.57
2018-06-19T05:55:58.086Z,6.63
2018-06-19T05:58:02.025Z,8.17
2018-06-19T06:00:06.809Z,7.77
2018-06-19T06:02:10.420Z,7.00
2018-06-19T06:04:15.209Z,5.90
2018-06-19T06:06:19.254Z,5.30
2018-06-19T06:08:23.120Z,6.13
2018-06-19T06:10:26.985Z,5.80
2018-06-19T06:12:31.260Z,8.00
2018-06-19T06:14:34.829Z,4.83
2018-06-19T06:16:38.537Z,6.73
2018-06-19T06:18:42.840Z,5.03
2018-06-19T06:20:47.489Z,4.67
2018-06-19T06:22:51.171Z,4.50
2018-06-19T06:24:54.725Z,4.80
2018-06-19T06:26:58.295Z,4.80
2018-06-19T06:29:01.983Z,5.07
2018-06-19T06:31:05.781Z,5.03
2018-06-19T06:33:09.344Z,5.93
2018-06-19T06:35:13.130Z,4.67
2018-06-19T06:37:16.849Z,4.87
2018-06-19T06:39:20.593Z,4.13
2018-06-19T06:41:24.180Z,4.03
2018-06-19T06:43:27.771Z,4.47
2018-06-19T06:45:31.363Z,7.33
2018-06-19T06:47:34.947Z,4.23
2018-06-19T06:49:38.512Z,7.87
2018-06-19T06:51:42.001Z,6.70
2018-06-19T06:53:45.671Z,4.07
2018-06-19T06:55:49.306Z,3.73
2018-06-19T06:57:52.889Z,5.57
2018-06-19T06:59:56.425Z,5.77
2018-06-19T07:02:00.456Z,4.90
2018-06-19T07:04:04.129Z,6.97
2018-06-19T07:06:08.072Z,4.80
2018-06-19T07:08:11.636Z,5.67
2018-06-19T07:10:16.137Z,4.57
2018-06-19T07:12:20.040Z,3.90
2018-06-19T07:14:23.688Z,5.00
2018-06-19T07:16:27.518Z,4.33
2018-06-19T07:18:31.037Z,6.47
2018-06-19T07:20:34.667Z,5.80
2018-06-19T07:22:38.321Z,6.60
2018-06-19T07:24:41.961Z,5.87
2018-06-19T07:26:45.554Z,3.80
2018-06-19T07:28:49.068Z,5.77
2018-06-19T07:30:52.657Z,5.97
2018-06-19T07:32:56.417Z,3.93
2018-06-19T07:35:00.082Z,4.47
2018-06-19T07:37:03.778Z,5.67
2018-06-19T07:39:10.156Z,5.87
2018-06-19T07:41:14.097Z,4.37
2018-06-19T07:43:17.786Z,3.77
2018-06-19T07:45:21.640Z,4.03
2018-06-19T07:47:25.266Z,6.10
2018-06-19T07:49:29.044Z,4.67
2018-06-19T07:51:32.825Z,4.13
2018-06-19T07:53:39.252Z,4.77
2018-06-19T07:55:43.294Z,4.30
2018-06-19T07:57:47.049Z,7.17
2018-06-19T07:59:50.856Z,4.43
2018-06-19T08:01:54.503Z,4.13
2018-06-19T08:03:58.136Z,4.90
2018-06-19T08:06:01.724Z,4.33
2018-06-19T08:08:05.860Z,5.13
2018-06-19T08:10:09.532Z,7.33
2018-06-19T08:12:13.289Z,4.60
2018-06-19T08:14:16.939Z,4.80
2018-06-19T08:16:20.531Z,5.07
2018-06-19T08:18:24.107Z,3.57
2018-06-19T08:20:27.639Z,3.33
2018-06-19T08:22:31.311Z,3.00
2018-06-19T08:24:35.748Z,4.30
2018-06-19T08:26:39.966Z,4.97
2018-06-19T08:28:43.600Z,3.30
2018-06-19T08:30:47.306Z,3.67
2018-06-19T08:32:51.027Z,3.43
2018-06-19T08:34:54.558Z,4.97
2018-06-19T08:36:58.338Z,3.37
2018-06-19T08:39:02.070Z,3.40
2018-06-19T08:41:05.641Z,4.13
2018-06-19T08:43:09.308Z,4.03
2018-06-19T08:45:13.429Z,4.57
2018-06-19T08:47:17.429Z,4.47
2018-06-19T08:49:21.065Z,2.67
2018-06-19T08:51:25.037Z,2.30
2018-06-19T08:53:28.959Z,3.03
2018-06-19T08:55:32.669Z,3.33
2018-06-19T08:57:36.278Z,2.63
2018-06-19T08:59:39.849Z,2.30
2018-06-19T09:01:43.476Z,4.67
2018-06-19T09:03:47.298Z,4.87
2018-06-19T09:05:51.422Z,3.10
2018-06-19T09:07:55.153Z,2.17
2018-06-19T09:09:58.748Z,1.77
2018-06-19T09:12:02.336Z,2.23
2018-06-19T09:14:06.092Z,1.77
2018-06-19T09:16:10.383Z,1.70
2018-06-19T09:18:14.345Z,2.23
2018-06-19T09:20:18.000Z,2.20
2018-06-19T09:22:21.559Z,1.67
2018-06-19T09:24:26.492Z,1.80
2018-06-19T09:26:30.247Z,2.07
2018-06-19T09:28:33.932Z,1.57
2018-06-19T09:30:37.633Z,3.07
2018-06-19T09:32:41.335Z,1.90
2018-06-19T09:34:51.331Z,2.03
2018-06-19T09:36:56.392Z,1.17
2018-06-19T09:39:00.816Z,1.30
2018-06-19T09:41:04.446Z,2.23
2018-06-19T09:43:08.409Z,2.27
2018-06-19T09:45:12.162Z,2.27
2018-06-19T09:47:15.673Z,2.10
2018-06-19T09:49:19.216Z,1.33
2018-06-19T09:51:22.945Z,1.37
2018-06-19T09:53:26.607Z,1.73
2018-06-19T09:55:30.378Z,2.73
2018-06-19T09:57:34.149Z,2.33
2018-06-19T09:59:38.612Z,3.22
2018-06-19T10:01:42.900Z,1.30
2018-06-19T10:03:46.591Z,1.70
2018-06-19T10:05:50.686Z,1.67
2018-06-19T10:07:54.629Z,1.97
2018-06-19T10:09:58.590Z,1.00
2018-06-19T10:12:03.041Z,1.50
2018-06-19T10:14:07.404Z,1.13
2018-06-19T10:16:11.059Z,2.07
2018-06-19T10:18:14.747Z,2.13
2018-06-19T10:20:18.881Z,1.93
2018-06-19T10:22:22.492Z,2.70
2018-06-19T10:24:26.151Z,1.00
2018-06-19T10:26:30.412Z,0.70
2018-06-19T10:28:34.237Z,1.97
2018-06-19T10:30:38.083Z,3.57
2018-06-19T10:32:41.952Z,1.03
2018-06-19T10:34:45.660Z,1.40
2018-06-19T10:36:49.257Z,0.90
2018-06-19T10:38:52.836Z,1.90
2018-06-19T10:40:56.820Z,1.00
2018-06-19T10:43:00.483Z,2.70
2018-06-19T10:45:04.130Z,1.20
2018-06-19T10:47:07.740Z,1.50
2018-06-19T10:49:11.318Z,1.00
2018-06-19T10:51:14.888Z,1.70
2018-06-19T10:53:18.456Z,1.63
2018-06-19T10:55:22.035Z,0.83
2018-06-19T10:57:25.608Z,1.17
2018-06-19T10:59:29.312Z,1.43
2018-06-19T11:01:32.964Z,1.43
2018-06-19T11:03:36.704Z,1.00
2018-06-19T11:05:40.591Z,2.23
2018-06-19T11:07:44.238Z,1.60
2018-06-19T11:09:48.670Z,1.27
2018-06-19T11:11:53.764Z,1.47
2018-06-19T11:14:00.793Z,1.30
2018-06-19T11:16:06.057Z,2.37
2018-06-19T11:18:10.148Z,2.47
2018-06-19T11:20:14.320Z,1.40
2018-06-19T11:22:18.667Z,1.70
2018-06-19T11:24:22.508Z,1.50
2018-06-19T11:26:26.267Z,1.67
2018-06-19T11:28:30.164Z,1.90
2018-06-19T11:30:33.855Z,3.17
2018-06-19T11:32:37.460Z,2.70
2018-06-19T11:34:41.117Z,2.00
2018-06-19T11:36:45.112Z,2.57
2018-06-19T11:38:48.884Z,1.30
2018-06-19T11:40:52.628Z,1.20
2018-06-19T11:42:56.183Z,1.63
2018-06-19T11:45:00.207Z,1.73
2018-06-19T11:47:03.767Z,2.30
2018-06-19T11:49:07.323Z,1.10
2018-06-19T11:51:11.253Z,3.83
2018-06-19T11:53:14.823Z,2.80
2018-06-19T11:55:18.380Z,2.77
2018-06-19T11:57:22.019Z,2.70
2018-06-19T11:59:26.043Z,1.73
2018-06-19T12:01:29.614Z,1.43
2018-06-19T12:03:33.211Z,2.00
2018-06-19T12:05:38.155Z,1.50
2018-06-19T12:07:43.259Z,2.27
2018-06-19T12:09:46.908Z,2.47
2018-06-19T12:11:50.580Z,1.67
2018-06-19T12:13:54.208Z,1.90
2018-06-19T12:15:57.728Z,2.30
2018-06-19T12:18:01.311Z,1.77
2018-06-19T12:20:07.537Z,1.27
2018-06-19T12:22:11.156Z,2.43
2018-06-19T12:24:14.877Z,4.87
2018-06-19T12:26:18.972Z,2.13
2018-06-19T12:28:22.568Z,2.07
2018-06-19T12:30:26.132Z,1.23
2018-06-19T12:32:29.849Z,1.77
2018-06-19T12:34:33.547Z,2.00
2018-06-19T12:36:37.245Z,2.57
2018-06-19T12:38:40.940Z,3.73
2018-06-19T12:40:44.713Z,1.30
2018-06-19T12:42:48.336Z,2.17
2018-06-19T12:44:51.995Z,1.20
2018-06-19T12:46:55.726Z,1.40
2018-06-19T12:48:59.556Z,2.47
2018-06-19T12:52:18.497Z,1.50
2018-06-19T12:54:46.702Z,1.77
2018-06-19T12:56:50.301Z,1.50
2018-06-19T12:58:54.435Z,3.40
2018-06-19T13:00:58.397Z,2.80
2018-06-19T13:03:13.226Z,2.10
2018-06-19T13:05:28.111Z,1.57
2018-06-19T13:07:32.282Z,1.43
2018-06-19T13:09:35.809Z,5.10
2018-06-19T13:11:39.402Z,1.57
2018-06-19T13:13:54.069Z,2.10
2018-06-19T13:15:58.174Z,2.67
2018-06-19T13:18:13.145Z,1.40
2018-06-19T13:20:27.819Z,3.07
2018-06-19T13:22:31.395Z,3.03
2018-06-19T13:24:35.086Z,1.77
2018-06-19T13:26:38.852Z,3.20
2018-06-19T13:29:54.415Z,2.63
2018-06-19T13:31:57.987Z,1.50
2018-06-19T13:34:01.498Z,2.30
2018-06-19T13:36:08.758Z,1.77
2018-06-19T13:38:12.851Z,2.40
2018-06-19T13:41:27.508Z,3.50
2018-06-19T13:43:42.749Z,1.60
2018-06-19T13:45:46.491Z,4.10
2018-06-19T13:47:50.505Z,4.70
2018-06-19T13:49:54.324Z,1.67
2018-06-19T13:51:58.812Z,3.87
2018-06-19T13:54:03.244Z,2.30
2018-06-19T13:57:22.865Z,1.70
2018-06-19T13:59:26.823Z,2.30
2018-06-19T14:01:30.978Z,2.07
2018-06-19T14:03:35.709Z,2.20
2018-06-19T14:05:39.372Z,2.77
2018-06-19T14:08:03.912Z,1.70
2018-06-19T14:10:20.886Z,4.03
2018-06-19T14:13:03.468Z,2.03
2018-06-19T14:15:07.571Z,3.37
2018-06-19T14:17:11.251Z,2.43
2018-06-19T14:19:15.136Z,3.00
2018-06-19T14:21:19.628Z,5.67
2018-06-19T14:23:23.636Z,3.33
2018-06-19T14:25:27.596Z,4.03
2018-06-19T14:27:31.725Z,3.43
2018-06-19T14:29:35.666Z,5.00
2018-06-19T14:31:39.768Z,5.30
2018-06-19T14:33:44.089Z,2.70
2018-06-19T14:35:47.672Z,5.07
2018-06-19T14:37:51.781Z,3.50
2018-06-19T14:39:55.428Z,4.50
2018-06-19T14:41:59.189Z,4.00
2018-06-19T14:44:03.616Z,2.40
2018-06-19T14:46:07.709Z,3.27
2018-06-19T14:48:11.790Z,4.97
2018-06-19T14:50:16.027Z,3.40
2018-06-19T14:52:19.950Z,3.23
2018-06-19T14:54:24.051Z,2.80
2018-06-19T14:56:27.884Z,4.70
2018-06-19T14:58:31.704Z,3.90
2018-06-19T15:00:35.739Z,3.13
2018-06-19T15:02:40.530Z,2.67
2018-06-19T15:04:44.407Z,2.83
2018-06-19T15:06:48.777Z,4.40
2018-06-19T15:08:52.406Z,2.70
2018-06-19T15:10:56.859Z,2.57
2018-06-19T15:13:01.355Z,3.43
2018-06-19T15:15:05.631Z,4.23
2018-06-19T15:17:09.883Z,2.73
2018-06-19T15:19:13.527Z,2.83
2018-06-19T15:21:17.237Z,2.63
2018-06-19T15:23:20.889Z,4.77
2018-06-19T15:25:24.644Z,2.93
2018-06-19T15:27:28.343Z,3.50
2018-06-19T15:29:32.123Z,4.50
2018-06-19T15:31:36.098Z,2.80
2018-06-19T15:33:39.898Z,2.63
2018-06-19T15:35:43.588Z,2.93
2018-06-19T15:37:47.583Z,2.90
2018-06-19T15:39:51.391Z,3.10
2018-06-19T15:41:55.111Z,3.03
2018-06-19T15:43:58.769Z,3.10
2018-06-19T15:46:02.436Z,3.90
2018-06-19T15:48:06.428Z,3.30
2018-06-19T15:50:10.080Z,3.83
2018-06-19T15:52:14.418Z,4.50
2018-06-19T15:54:18.056Z,3.63
2018-06-19T15:56:21.815Z,4.53
2018-06-19T15:58:25.989Z,4.13
2018-06-19T16:00:29.792Z,5.10
2018-06-19T16:02:33.431Z,3.70
2018-06-19T16:04:37.208Z,5.23
2018-06-19T16:06:40.863Z,4.93
2018-06-19T16:08:44.726Z,4.13
2018-06-19T16:10:49.496Z,4.67
2018-06-19T16:12:53.374Z,3.50
2018-06-19T16:14:57.256Z,3.43
2018-06-19T16:17:01.247Z,4.00
2018-06-19T16:19:05.725Z,3.53
2018-06-19T16:21:10.064Z,3.80
2018-06-19T16:23:13.898Z,3.30
2018-06-19T16:25:17.687Z,3.23
2018-06-19T16:27:21.634Z,3.10
2018-06-19T16:29:25.453Z,3.80
2018-06-19T16:31:29.362Z,6.50
2018-06-19T16:33:33.002Z,3.57
2018-06-19T16:35:36.955Z,3.30
2018-06-19T16:37:40.697Z,2.53
2018-06-19T16:39:44.510Z,3.73
2018-06-19T16:41:48.153Z,3.10
2018-06-19T16:43:51.848Z,3.37
2018-06-19T16:45:55.473Z,3.53
2018-06-19T16:47:59.191Z,2.90
2018-06-19T16:50:02.962Z,2.90
2018-06-19T16:52:07.060Z,2.53
2018-06-19T16:54:10.682Z,3.17
2018-06-19T16:56:14.481Z,3.33
2018-06-19T16:58:18.281Z,2.73
2018-06-19T17:00:22.041Z,2.90
2018-06-19T17:02:25.689Z,2.80
2018-06-19T17:04:29.286Z,3.30
2018-06-19T17:06:34.075Z,3.50
2018-06-19T17:08:37.947Z,3.57
2018-06-19T17:10:41.612Z,3.50
2018-06-19T17:12:45.303Z,2.87
2018-06-19T17:14:48.830Z,4.87
2018-06-19T17:16:52.509Z,5.33
2018-06-19T17:18:56.056Z,3.77
2018-06-19T17:20:59.757Z,2.63
2018-06-19T17:23:03.531Z,3.07
2018-06-19T17:25:07.261Z,3.00
2018-06-19T17:27:11.104Z,3.10
2018-06-19T17:29:14.686Z,2.53
2018-06-19T17:31:18.304Z,2.63
2018-06-19T17:33:21.936Z,2.57
2018-06-19T17:35:25.567Z,2.50
2018-06-19T17:37:29.377Z,2.87
2018-06-19T17:39:33.119Z,3.03
2018-06-19T17:41:37.563Z,2.90
2018-06-19T17:43:41.124Z,3.10
2018-06-19T17:45:45.222Z,2.93
2018-06-19T17:47:48.997Z,3.57
2018-06-19T17:49:52.612Z,2.53
2018-06-19T17:51:56.236Z,2.70
2018-06-19T17:54:00.068Z,4.70
2018-06-19T17:56:03.784Z,4.43
2018-06-19T17:58:07.579Z,2.60
2018-06-19T18:00:11.640Z,2.40
2018-06-19T18:02:15.382Z,2.63
2018-06-19T18:04:19.116Z,3.20
2018-06-19T18:06:22.937Z,3.37
2018-06-19T18:08:26.623Z,2.67
2018-06-19T18:10:30.238Z,2.10
2018-06-19T18:12:33.892Z,2.30
2018-06-19T18:14:37.519Z,2.70
2018-06-19T18:16:41.146Z,4.03
2018-06-19T18:18:44.931Z,3.93
2018-06-19T18:20:48.546Z,3.33
2018-06-19T18:22:52.306Z,4.83
2018-06-19T18:24:55.925Z,2.70
2018-06-19T18:26:59.631Z,2.57
2018-06-19T18:29:03.405Z,2.13
2018-06-19T18:31:07.488Z,2.40
2018-06-19T18:33:11.347Z,2.13
2018-06-19T18:35:15.035Z,2.93
2018-06-19T18:37:18.802Z,4.53
2018-06-19T18:39:22.437Z,3.53
2018-06-19T18:41:26.315Z,2.10
2018-06-19T18:43:30.405Z,3.37
2018-06-19T18:45:34.103Z,2.07
2018-06-19T18:47:37.751Z,3.47
2018-06-19T18:49:41.492Z,2.00
2018-06-19T18:51:45.401Z,2.57
2018-06-19T18:53:48.979Z,2.27
2018-06-19T18:55:52.695Z,2.73
2018-06-19T18:57:56.372Z,3.40
2018-06-19T18:59:59.970Z,1.87
2018-06-19T19:02:03.708Z,1.93
2018-06-19T19:04:07.420Z,2.30
2018-06-19T19:06:11.058Z,2.27
2018-06-19T19:08:21.585Z,3.70
2018-06-19T19:10:30.571Z,3.27
2018-06-19T19:12:34.203Z,2.77
2018-06-19T19:14:43.084Z,2.80
2018-06-19T19:16:52.025Z,3.17
2018-06-19T19:19:06.497Z,3.87
2018-06-19T19:21:10.369Z,3.37
2018-06-19T19:23:14.161Z,3.83
2018-06-19T19:25:18.142Z,4.73
2018-06-19T19:28:25.845Z,2.27
2018-06-19T19:30:29.638Z,2.83
2018-06-19T19:32:33.492Z,6.63
2018-06-19T19:34:37.280Z,4.67
2018-06-19T19:36:46.294Z,2.80
2018-06-19T19:38:55.179Z,4.80
2018-06-19T19:40:58.887Z,3.00
2018-06-19T19:43:02.673Z,3.77
2018-06-19T19:45:06.369Z,3.27
2018-06-19T19:47:15.441Z,3.97
2018-06-19T19:49:19.093Z,5.53
2018-06-19T19:51:22.911Z,3.50
2018-06-19T19:53:26.613Z,4.07
2018-06-19T19:55:30.322Z,4.10
2018-06-19T19:57:39.206Z,6.00
2018-06-19T19:59:43.315Z,4.63
2018-06-19T20:01:46.967Z,8.93
2018-06-19T20:03:50.533Z,5.67
2018-06-19T20:05:54.226Z,4.57
2018-06-19T20:07:58.105Z,5.20
2018-06-19T20:10:01.885Z,6.57
2018-06-19T20:12:05.632Z,5.57
2018-06-19T20:14:09.418Z,6.20
2018-06-19T20:16:13.189Z,7.17
2018-06-19T20:18:17.485Z,6.77
2018-06-19T20:20:21.202Z,6.40
2018-06-19T20:22:24.945Z,5.63
2018-06-19T20:24:28.849Z,6.57
2018-06-19T20:26:32.732Z,4.70
2018-06-19T20:28:36.795Z,4.53
2018-06-19T20:30:40.985Z,7.20
2018-06-19T20:32:44.935Z,5.37
2018-06-19T20:34:48.644Z,5.33
2018-06-19T20:36:52.913Z,5.83
2018-06-19T20:38:56.535Z,7.30
2018-06-19T20:41:00.279Z,7.90
2018-06-19T20:43:03.953Z,5.53
2018-06-19T20:45:07.827Z,5.47
2018-06-19T20:47:11.622Z,5.13
2018-06-19T20:49:15.381Z,6.80
2018-06-19T20:51:19.062Z,4.90
2018-06-19T20:53:22.953Z,7.33
2018-06-19T20:55:26.613Z,5.90
2018-06-19T20:57:30.284Z,8.13
2018-06-19T20:59:33.936Z,5.13
2018-06-19T21:01:37.758Z,4.90
2018-06-19T21:03:41.445Z,5.23
2018-06-19T21:05:45.099Z,4.50
2018-06-19T21:07:48.798Z,4.73
2018-06-19T21:09:52.534Z,6.90
2018-06-19T21:11:56.142Z,5.50
2018-06-19T21:13:59.978Z,6.80
2018-06-19T21:16:03.794Z,4.80
2018-06-19T21:18:07.728Z,5.33
2018-06-19T21:20:11.344Z,5.40
2018-06-19T21:22:15.081Z,4.93
2018-06-19T21:24:18.723Z,4.97
2018-06-19T21:26:22.747Z,5.00
2018-06-19T21:28:26.503Z,5.40
2018-06-19T21:30:30.190Z,6.13
2018-06-19T21:32:33.985Z,5.23
2018-06-19T21:34:37.744Z,5.97
2018-06-19T21:36:41.412Z,4.90
2018-06-19T21:38:45.162Z,5.87
2018-06-19T21:40:48.835Z,6.77
2018-06-19T21:42:52.518Z,6.03
2018-06-19T21:44:56.208Z,6.10
2018-06-19T21:46:59.792Z,6.20
2018-06-19T21:49:03.582Z,5.80
2018-06-19T21:51:07.285Z,9.17
2018-06-19T21:53:10.909Z,6.57
2018-06-19T21:55:14.579Z,6.20
2018-06-19T21:57:18.326Z,6.33
2018-06-19T21:59:21.989Z,7.30
2018-06-19T22:01:25.610Z,6.10
2018-06-19T22:03:29.143Z,6.00
2018-06-19T22:05:32.791Z,7.17
2018-06-19T22:07:36.398Z,7.77
2018-06-19T22:09:40.039Z,5.93
2018-06-19T22:11:43.673Z,6.20
2018-06-19T22:13:47.360Z,5.40
2018-06-19T22:15:50.958Z,6.93
2018-06-19T22:17:55.332Z,8.93
2018-06-19T22:19:59.052Z,6.50
2018-06-19T22:22:02.788Z,5.60
2018-06-19T22:24:06.585Z,5.40
2018-06-19T22:26:10.388Z,5.87
2018-06-19T22:28:14.223Z,6.90
2018-06-19T22:30:17.835Z,6.37
2018-06-19T22:32:21.693Z,5.40
2018-06-19T22:34:25.446Z,6.97
2018-06-19T22:36:29.172Z,6.67
2018-06-19T22:38:32.877Z,7.13
2018-06-19T22:40:36.723Z,6.80
2018-06-19T22:42:40.525Z,6.17
2018-06-19T22:44:44.201Z,7.43
2018-06-19T22:46:47.927Z,6.77
2018-06-19T22:48:51.655Z,6.87
2018-06-19T22:50:55.357Z,5.83
2018-06-19T22:52:59.072Z,6.43
2018-06-19T22:55:02.828Z,6.13
2018-06-19T22:57:06.528Z,6.43
2018-06-19T22:59:10.173Z,7.50
2018-06-19T23:01:13.747Z,6.40
2018-06-19T23:03:17.541Z,6.60
2018-06-19T23:05:21.198Z,6.77
2018-06-19T23:07:24.948Z,6.87
2018-06-19T23:09:28.648Z,6.20
2018-06-19T23:11:32.457Z,9.83
2018-06-19T23:13:36.092Z,7.37
2018-06-19T23:15:39.749Z,6.27
2018-06-19T23:17:43.382Z,5.80
2018-06-19T23:19:47.172Z,6.27
2018-06-19T23:21:50.925Z,6.07
2018-06-19T23:23:54.807Z,8.03
2018-06-19T23:25:58.509Z,7.60
2018-06-19T23:28:02.254Z,7.77
2018-06-19T23:30:06.005Z,7.57
2018-06-19T23:32:09.856Z,7.67
2018-06-19T23:34:13.577Z,6.47
2018-06-19T23:36:17.364Z,8.10
2018-06-19T23:38:21.085Z,8.90
2018-06-19T23:40:24.750Z,7.43
2018-06-19T23:42:28.591Z,7.63
2018-06-19T23:44:32.270Z,7.30
2018-06-19T23:46:36.089Z,8.00
2018-06-19T23:48:39.864Z,7.27
2018-06-19T23:50:43.539Z,6.83
2018-06-19T23:52:47.237Z,7.50
2018-06-19T23:54:50.979Z,7.93
2018-06-19T23:56:54.775Z,7.37
2018-06-19T23:58:58.600Z,9.00
